Time;durP1;ratioP1;P1;durP2;ratioP2;P2;SDS_P1;SDS_P2;PMS_P1;PMS_P2;Temp;Humidity;BMP_temperature;BMP_pressure;BME280_temperature;BME280_humidity;BME280_pressure;Samples;Min_cycle;Max_cycle;Signal;HPM_P1;HPM_P2
2023/04/28 00:04:17;;;;;;;8.50;4.00;;;;;;;;;;12699973;22;20023;-65
2023/04/28 00:09:16;;;;;;;7.78;3.88;;;;;;;;;;12699802;22;20023;-65
2023/04/28 00:14:15;;;;;;;5.45;3.45;;;;;;;;;;12698931;22;20012;-65
2023/04/28 00:19:14;;;;;;;6.57;3.47;;;;;;;;;;12700046;22;20023;-65
2023/04/28 00:24:12;;;;;;;6.57;3.58;;;;;;;;;;12699094;22;20179;-65
2023/04/28 00:29:10;;;;;;;5.40;3.63;;;;;;;;;;12697707;22;20385;-65
2023/04/28 00:34:13;;;;;;;6.18;3.95;;;;;;;;;;12698820;22;20022;-65
2023/04/28 00:39:11;;;;;;;5.50;4.35;;;;;;;;;;12707519;22;20019;-65
2023/04/28 00:44:10;;;;;;;3.63;3.30;;;;;;;;;;12671428;23;20358;-65
2023/04/28 00:49:08;;;;;;;5.93;3.72;;;;;;;;;;12699593;22;20023;-65
2023/04/28 00:54:07;;;;;;;8.35;4.60;;;;;;;;;;12699386;22;20460;-65
2023/04/28 00:59:06;;;;;;;5.82;3.47;;;;;;;;;;12699463;22;20366;-65
2023/04/28 01:04:04;;;;;;;5.32;4.32;;;;;;;;;;12699491;22;20059;-65
2023/04/28 01:09:05;;;;;;;5.82;4.70;;;;;;;;;;12671764;23;20024;-65
2023/04/28 01:14:04;;;;;;;8.57;3.92;;;;;;;;;;12672151;23;20027;-64
2023/04/28 01:19:07;;;;;;;8.00;5.07;;;;;;;;;;12706505;22;20351;-64
2023/04/28 01:24:09;;;;;;;6.22;3.95;;;;;;;;;;12671002;23;20026;-65
2023/04/28 01:29:08;;;;;;;4.55;3.45;;;;;;;;;;12699631;22;20028;-64
2023/04/28 01:34:06;;;;;;;6.45;3.55;;;;;;;;;;12674872;23;20024;-64
2023/04/28 01:39:06;;;;;;;4.38;3.70;;;;;;;;;;12675371;23;20442;-64
2023/04/28 01:44:06;;;;;;;5.40;3.58;;;;;;;;;;12702944;22;20019;-64
2023/04/28 01:49:04;;;;;;;7.40;4.03;;;;;;;;;;12674265;23;20020;-64
2023/04/28 01:54:04;;;;;;;7.35;4.72;;;;;;;;;;12674970;23;20016;-64
2023/04/28 01:59:02;;;;;;;6.00;3.90;;;;;;;;;;12674392;23;20016;-64
2023/04/28 02:04:02;;;;;;;11.18;5.85;;;;;;;;;;12675084;22;20333;-64
2023/04/28 02:09:04;;;;;;;6.05;4.00;;;;;;;;;;12674093;23;20016;-64
2023/04/28 02:14:03;;;;;;;6.00;4.30;;;;;;;;;;12675090;23;20012;-65
2023/04/28 02:19:03;;;;;;;6.95;4.45;;;;;;;;;;12675134;22;20023;-64
2023/04/28 02:24:02;;;;;;;4.22;3.42;;;;;;;;;;12702029;22;20012;-64
2023/04/28 02:29:03;;;;;;;6.22;3.83;;;;;;;;;;12673121;22;20028;-64
2023/04/28 02:34:04;;;;;;;6.80;4.43;;;;;;;;;;12710341;22;20013;-64
2023/04/28 02:39:02;;;;;;;6.50;4.65;;;;;;;;;;12673968;22;20023;-64
2023/04/28 02:44:00;;;;;;;15.13;4.07;;;;;;;;;;12700227;22;20028;-64
2023/04/28 02:48:58;;;;;;;7.82;4.32;;;;;;;;;;12673910;22;20020;-64
2023/04/28 02:53:57;;;;;;;5.50;3.60;;;;;;;;;;12673705;22;20492;-65
2023/04/28 02:58:56;;;;;;;5.93;4.30;;;;;;;;;;12700184;22;20462;-64
2023/04/28 03:03:54;;;;;;;4.68;4.00;;;;;;;;;;12673570;22;20031;-64
2023/04/28 03:08:53;;;;;;;10.05;4.60;;;;;;;;;;12673879;22;20019;-64
2023/04/28 03:13:52;;;;;;;4.45;3.80;;;;;;;;;;12672757;22;20024;-64
2023/04/28 03:18:51;;;;;;;9.38;3.80;;;;;;;;;;12672911;22;20016;-64
2023/04/28 03:23:50;;;;;;;8.20;4.10;;;;;;;;;;12673253;22;20342;-64
2023/04/28 03:28:48;;;;;;;6.13;3.95;;;;;;;;;;12699905;22;20019;-63
2023/04/28 03:33:49;;;;;;;6.88;3.47;;;;;;;;;;12673043;22;20450;-64
2023/04/28 03:38:48;;;;;;;5.05;3.83;;;;;;;;;;12672175;22;20477;-64
2023/04/28 03:43:46;;;;;;;10.60;4.47;;;;;;;;;;12672182;22;20046;-64
2023/04/28 03:49:07;;;;;;;6.07;3.60;;;;;;;;;;12671932;23;20024;-64
2023/04/28 03:54:05;;;;;;;9.35;4.57;;;;;;;;;;12672170;23;20020;-64
2023/04/28 03:59:04;;;;;;;9.60;4.55;;;;;;;;;;12669460;23;20020;-65
2023/04/28 04:04:02;;;;;;;8.27;3.75;;;;;;;;;;12699375;22;20038;-64
2023/04/28 04:09:02;;;;;;;6.50;4.38;;;;;;;;;;12669920;22;20023;-65
2023/04/28 04:14:02;;;;;;;8.35;5.80;;;;;;;;;;12667085;23;20331;-65
2023/04/28 04:19:01;;;;;;;8.88;4.65;;;;;;;;;;12666742;22;20016;-65
2023/04/28 04:24:13;;;;;;;9.65;5.28;;;;;;;;;;12669156;23;20020;-65
2023/04/28 04:29:12;;;;;;;11.38;6.90;;;;;;;;;;12697607;22;20024;-65
2023/04/28 04:34:11;;;;;;;9.50;5.70;;;;;;;;;;12667469;23;20023;-64
2023/04/28 04:39:09;;;;;;;8.00;7.20;;;;;;;;;;12698810;22;20012;-65
2023/04/28 04:44:08;;;;;;;9.73;5.40;;;;;;;;;;12671685;23;20016;-64
2023/04/28 04:49:12;;;;;;;9.05;7.10;;;;;;;;;;12667303;23;20616;-63
2023/04/28 04:54:11;;;;;;;9.65;6.38;;;;;;;;;;12667059;23;20024;-63
2023/04/28 04:59:13;;;;;;;12.10;5.32;;;;;;;;;;12667444;23;20362;-64
2023/04/28 05:04:43;;;;;;;12.38;6.82;;;;;;;;;;12640157;23;20453;-63
2023/04/28 05:09:44;;;;;;;11.05;7.60;;;;;;;;;;12675636;23;20747;-64
2023/04/28 05:14:44;;;;;;;15.68;7.97;;;;;;;;;;12674889;23;20016;-64
2023/04/28 05:19:43;;;;;;;9.68;6.28;;;;;;;;;;12674286;23;20023;-64
2023/04/28 05:24:41;;;;;;;9.57;6.22;;;;;;;;;;12672159;23;20052;-63
2023/04/28 05:29:41;;;;;;;10.30;6.03;;;;;;;;;;12670073;23;20024;-67
2023/04/28 05:34:42;;;;;;;15.95;7.72;;;;;;;;;;12669224;23;20024;-64
2023/04/28 05:39:41;;;;;;;10.70;6.65;;;;;;;;;;12669746;23;20027;-64
2023/04/28 05:44:39;;;;;;;11.95;7.82;;;;;;;;;;12669576;23;20031;-64
2023/04/28 05:49:40;;;;;;;10.68;6.30;;;;;;;;;;12703086;22;20020;-64
2023/04/28 05:54:40;;;;;;;13.98;9.23;;;;;;;;;;12669448;23;20027;-64
2023/04/28 05:59:38;;;;;;;41.38;20.45;;;;;;;;;;12696663;22;20058;-64
2023/04/28 06:04:36;;;;;;;12.70;7.88;;;;;;;;;;12672260;23;20012;-65
2023/04/28 06:09:36;;;;;;;12.13;5.82;;;;;;;;;;12670425;23;20016;-65
2023/04/28 06:14:36;;;;;;;15.60;8.27;;;;;;;;;;12667348;23;20031;-65
2023/04/28 06:19:34;;;;;;;7.00;5.13;;;;;;;;;;12668964;23;20347;-66
2023/04/28 06:24:33;;;;;;;8.82;4.70;;;;;;;;;;12670583;23;20394;-66
2023/04/28 06:29:33;;;;;;;13.20;8.15;;;;;;;;;;12663802;23;20054;-64
2023/04/28 06:34:34;;;;;;;7.32;5.78;;;;;;;;;;12663126;23;20020;-64
2023/04/28 06:39:32;;;;;;;7.45;4.75;;;;;;;;;;12661496;23;20042;-65
2023/04/28 06:44:30;;;;;;;6.63;5.10;;;;;;;;;;12664851;23;20020;-64
2023/04/28 06:49:29;;;;;;;8.48;5.07;;;;;;;;;;12695255;22;20020;-64
2023/04/28 06:54:31;;;;;;;6.57;4.45;;;;;;;;;;12670410;23;20020;-64
2023/04/28 06:59:29;;;;;;;5.28;3.58;;;;;;;;;;12672146;23;20016;-65
2023/04/28 07:04:27;;;;;;;7.25;3.92;;;;;;;;;;12700406;22;20016;-64
2023/04/28 07:09:26;;;;;;;8.30;5.30;;;;;;;;;;12698176;22;20016;-65
2023/04/28 07:14:27;;;;;;;10.63;6.88;;;;;;;;;;12700019;22;20024;-65
2023/04/28 07:19:26;;;;;;;7.15;4.22;;;;;;;;;;12700049;22;20020;-65
2023/04/28 07:24:26;;;;;;;8.82;4.68;;;;;;;;;;12701155;22;20046;-65
2023/04/28 07:29:27;;;;;;;9.73;4.18;;;;;;;;;;12699630;22;20023;-64
2023/04/28 07:34:27;;;;;;;7.25;4.72;;;;;;;;;;12706756;22;20019;-65
2023/04/28 07:39:25;;;;;;;14.32;9.77;;;;;;;;;;12699037;22;20024;-64
2023/04/28 07:44:23;;;;;;;7.57;3.63;;;;;;;;;;12700785;22;20012;-65
2023/04/28 07:49:21;;;;;;;5.60;4.32;;;;;;;;;;12699824;22;20460;-65
2023/04/28 07:54:21;;;;;;;4.05;3.25;;;;;;;;;;12699898;22;20027;-63
2023/04/28 07:59:20;;;;;;;4.68;3.30;;;;;;;;;;12699170;22;20020;-63
2023/04/28 08:04:18;;;;;;;7.13;5.40;;;;;;;;;;12672372;23;20012;-63
2023/04/28 08:09:17;;;;;;;9.60;5.90;;;;;;;;;;12699711;22;20008;-63
2023/04/28 08:14:17;;;;;;;11.07;4.50;;;;;;;;;;12698321;22;20020;-63
2023/04/28 08:19:15;;;;;;;6.72;4.40;;;;;;;;;;12699618;22;20008;-63
2023/04/28 08:24:14;;;;;;;5.13;3.78;;;;;;;;;;12698864;22;20020;-62
2023/04/28 08:29:12;;;;;;;4.82;3.97;;;;;;;;;;12697873;22;20043;-63
2023/04/28 08:34:12;;;;;;;6.20;3.97;;;;;;;;;;12698694;22;20023;-63
2023/04/28 08:39:13;;;;;;;4.75;3.30;;;;;;;;;;12697533;22;20023;-64
2023/04/28 08:44:12;;;;;;;5.85;3.40;;;;;;;;;;12696345;22;20012;-64
2023/04/28 08:49:13;;;;;;;5.97;3.38;;;;;;;;;;12697438;22;20016;-64
2023/04/28 08:54:14;;;;;;;9.27;4.57;;;;;;;;;;12704907;22;20020;-64
2023/04/28 08:59:26;;;;;;;6.65;3.42;;;;;;;;;;12695739;22;20020;-64
2023/04/28 09:04:26;;;;;;;6.57;3.80;;;;;;;;;;12695813;22;20107;-63
2023/04/28 09:09:26;;;;;;;11.20;4.32;;;;;;;;;;12695425;22;20466;-63
2023/04/28 09:14:25;;;;;;;6.00;3.72;;;;;;;;;;12697339;22;20442;-63
2023/04/28 09:19:23;;;;;;;4.35;2.95;;;;;;;;;;12695325;22;20021;-65
2023/04/28 09:24:33;;;;;;;9.05;4.60;;;;;;;;;;12696472;22;20012;-64
2023/04/28 09:29:31;;;;;;;6.72;3.90;;;;;;;;;;12694932;22;20024;-64
2023/04/28 09:34:44;;;;;;;7.43;3.95;;;;;;;;;;12696174;22;20016;-64
2023/04/28 09:39:44;;;;;;;10.13;5.25;;;;;;;;;;12696866;22;20024;-64
2023/04/28 09:44:52;;;;;;;3.55;2.88;;;;;;;;;;12696542;22;20035;-64
2023/04/28 09:49:54;;;;;;;12.98;8.77;;;;;;;;;;12697549;22;20024;-63
2023/04/28 09:54:55;;;;;;;5.35;3.83;;;;;;;;;;12700667;22;20362;-65
2023/04/28 09:59:53;;;;;;;5.30;4.35;;;;;;;;;;12705482;22;20039;-64
2023/04/28 10:04:52;;;;;;;7.05;4.43;;;;;;;;;;12697738;22;20016;-64
2023/04/28 10:09:51;;;;;;;8.23;5.65;;;;;;;;;;12700432;22;20020;-65
2023/04/28 10:14:53;;;;;;;5.70;3.78;;;;;;;;;;12699585;22;20047;-63
2023/04/28 10:19:53;;;;;;;5.68;4.20;;;;;;;;;;12705728;22;20023;-64
2023/04/28 10:25:04;;;;;;;6.65;3.35;;;;;;;;;;12699938;22;20024;-65
2023/04/28 10:30:14;;;;;;;9.23;4.38;;;;;;;;;;12698888;22;20028;-64
2023/04/28 10:35:35;;;;;;;7.95;5.00;;;;;;;;;;12705542;22;20013;-64
2023/04/28 10:40:33;;;;;;;6.25;3.53;;;;;;;;;;12700096;22;20016;-63
2023/04/28 10:45:50;;;;;;;6.35;3.25;;;;;;;;;;12700002;22;20099;-64
2023/04/28 10:51:11;;;;;;;6.30;3.47;;;;;;;;;;12702871;22;20012;-64
2023/04/28 10:56:13;;;;;;;11.15;4.15;;;;;;;;;;12720039;22;20020;-63
2023/04/28 11:01:28;;;;;;;5.65;3.17;;;;;;;;;;12721028;22;20024;-64
2023/04/28 11:06:27;;;;;;;6.43;4.15;;;;;;;;;;12700498;22;20016;-63
2023/04/28 11:11:27;;;;;;;6.57;3.70;;;;;;;;;;12700318;22;20020;-63
2023/04/28 11:16:26;;;;;;;4.22;3.03;;;;;;;;;;12699028;22;20024;-64
2023/04/28 11:21:24;;;;;;;5.57;3.50;;;;;;;;;;12699218;22;20020;-63
2023/04/28 11:26:23;;;;;;;7.63;2.75;;;;;;;;;;12700112;22;20445;-63
2023/04/28 11:31:24;;;;;;;6.93;3.22;;;;;;;;;;12699109;22;20024;-63
2023/04/28 11:36:24;;;;;;;7.13;3.63;;;;;;;;;;12719532;22;20042;-63
2023/04/28 11:41:23;;;;;;;5.55;3.05;;;;;;;;;;12699749;22;20358;-63
2023/04/28 11:46:23;;;;;;;6.97;3.75;;;;;;;;;;12699973;22;20027;-64
2023/04/28 11:51:28;;;;;;;8.88;4.90;;;;;;;;;;12699645;22;20031;-64
2023/04/28 11:56:27;;;;;;;7.70;3.65;;;;;;;;;;12699596;22;20019;-64
2023/04/28 12:01:26;;;;;;;4.65;3.08;;;;;;;;;;12699444;22;20054;-64
2023/04/28 12:06:25;;;;;;;6.63;3.53;;;;;;;;;;12699256;22;20020;-64
2023/04/28 12:11:23;;;;;;;5.53;3.55;;;;;;;;;;12698380;22;20016;-64
2023/04/28 12:16:37;;;;;;;7.47;3.78;;;;;;;;;;12697832;22;20365;-62
2023/04/28 12:21:37;;;;;;;5.80;4.20;;;;;;;;;;12697730;22;20012;-63
2023/04/28 12:26:35;;;;;;;6.13;3.85;;;;;;;;;;12698463;22;20019;-62
2023/04/28 12:31:47;;;;;;;12.95;7.05;;;;;;;;;;12718079;22;20015;-64
2023/04/28 12:36:47;;;;;;;11.00;4.95;;;;;;;;;;12716974;22;20019;-64
2023/04/28 12:41:45;;;;;;;6.28;4.10;;;;;;;;;;12698764;22;20012;-63
2023/04/28 12:46:43;;;;;;;4.38;2.67;;;;;;;;;;12697262;22;20019;-63
2023/04/28 12:51:42;;;;;;;5.55;2.85;;;;;;;;;;12697549;22;20019;-63
2023/04/28 12:56:42;;;;;;;4.68;3.40;;;;;;;;;;12698764;22;20461;-63
2023/04/28 13:01:40;;;;;;;4.20;3.53;;;;;;;;;;12698434;22;20012;-63
2023/04/28 13:06:39;;;;;;;6.53;3.65;;;;;;;;;;12697284;22;20023;-63
2023/04/28 13:11:37;;;;;;;6.90;3.10;;;;;;;;;;12698181;22;20027;-63
2023/04/28 13:16:37;;;;;;;4.70;2.85;;;;;;;;;;12670860;22;20047;-63
2023/04/28 13:21:36;;;;;;;5.43;3.05;;;;;;;;;;12700376;22;20020;-64
2023/04/28 13:26:36;;;;;;;6.95;3.58;;;;;;;;;;12721145;22;20012;-63
2023/04/28 13:31:35;;;;;;;5.10;3.35;;;;;;;;;;12721356;22;20027;-63
2023/04/28 13:36:35;;;;;;;9.82;4.20;;;;;;;;;;12702328;22;20019;-63
2023/04/28 13:41:36;;;;;;;5.97;3.03;;;;;;;;;;12703094;22;20019;-63
2023/04/28 13:46:34;;;;;;;9.35;6.07;;;;;;;;;;12698400;22;20030;-63
2023/04/28 13:51:32;;;;;;;7.15;4.35;;;;;;;;;;12698740;22;20015;-63
2023/04/28 13:56:32;;;;;;;7.18;3.05;;;;;;;;;;12698912;22;20020;-67
2023/04/28 14:01:30;;;;;;;4.07;2.63;;;;;;;;;;12695897;22;20035;-66
2023/04/28 14:06:29;;;;;;;5.53;3.65;;;;;;;;;;12697231;22;20024;-67
2023/04/28 14:11:29;;;;;;;3.28;3.05;;;;;;;;;;12697547;22;20035;-66
2023/04/28 14:16:29;;;;;;;5.35;3.67;;;;;;;;;;12693472;22;20020;-66
2023/04/28 14:21:27;;;;;;;5.80;3.33;;;;;;;;;;12696505;22;20012;-66
2023/04/28 14:26:27;;;;;;;7.15;3.22;;;;;;;;;;12696754;22;20020;-66
2023/04/28 14:31:25;;;;;;;6.90;3.17;;;;;;;;;;12720782;22;20529;-65
2023/04/28 14:36:27;;;;;;;3.72;2.65;;;;;;;;;;12699824;22;20857;-65
2023/04/28 14:41:25;;;;;;;6.10;4.13;;;;;;;;;;12692307;22;20024;-65
2023/04/28 14:46:24;;;;;;;5.32;2.75;;;;;;;;;;12695386;22;20020;-65
2023/04/28 14:51:22;;;;;;;8.23;6.05;;;;;;;;;;12694497;22;20020;-65
2023/04/28 14:56:22;;;;;;;4.28;3.22;;;;;;;;;;12697521;22;20023;-65
2023/04/28 15:01:20;;;;;;;5.22;3.25;;;;;;;;;;12698178;22;20460;-66
2023/04/28 15:06:18;;;;;;;7.53;3.75;;;;;;;;;;12695482;22;20027;-65
2023/04/28 15:11:17;;;;;;;4.43;2.97;;;;;;;;;;12693694;22;20020;-65
2023/04/28 15:16:17;;;;;;;6.97;4.70;;;;;;;;;;12697124;22;20031;-64
2023/04/28 15:21:16;;;;;;;6.18;3.70;;;;;;;;;;12672971;22;20012;-64
2023/04/28 15:26:15;;;;;;;3.55;2.92;;;;;;;;;;12672155;22;20020;-65
2023/04/28 15:31:14;;;;;;;3.45;3.13;;;;;;;;;;12695491;22;20024;-65
2023/04/28 15:36:16;;;;;;;10.05;7.13;;;;;;;;;;12663939;22;20466;-66
2023/04/28 15:41:15;;;;;;;9.32;6.10;;;;;;;;;;12693634;22;20031;-65
2023/04/28 15:46:15;;;;;;;8.73;6.10;;;;;;;;;;12695162;22;20016;-65
2023/04/28 15:51:15;;;;;;;6.68;3.40;;;;;;;;;;12695817;22;20030;-64
2023/04/28 15:56:14;;;;;;;8.07;6.28;;;;;;;;;;12693910;22;20016;-64
2023/04/28 16:01:14;;;;;;;7.35;5.13;;;;;;;;;;12693428;22;20074;-64
2023/04/28 16:06:13;;;;;;;12.80;6.90;;;;;;;;;;12695858;22;20016;-64
2023/04/28 16:11:16;;;;;;;26.30;16.73;;;;;;;;;;12697579;22;20042;-64
2023/04/28 16:16:14;;;;;;;17.17;11.48;;;;;;;;;;12696045;22;20024;-64
2023/04/28 16:21:16;;;;;;;59.53;41.75;;;;;;;;;;12698029;22;20020;-65
2023/04/28 16:26:15;;;;;;;22.17;16.33;;;;;;;;;;12669890;22;20083;-64
2023/04/28 16:31:14;;;;;;;8.88;7.63;;;;;;;;;;12697772;22;20023;-64
2023/04/28 16:36:12;;;;;;;20.67;13.60;;;;;;;;;;12698193;22;20261;-64
2023/04/28 16:41:10;;;;;;;9.60;6.55;;;;;;;;;;12691504;22;20024;-63
2023/04/28 16:46:10;;;;;;;7.38;4.93;;;;;;;;;;12693027;23;20591;-64
2023/04/28 16:51:09;;;;;;;7.50;4.38;;;;;;;;;;12696866;23;20017;-65
2023/04/28 16:56:08;;;;;;;7.22;5.78;;;;;;;;;;12698811;22;20016;-64
2023/04/28 17:01:08;;;;;;;11.23;8.70;;;;;;;;;;12698544;23;20016;-63
2023/04/28 17:06:08;;;;;;;16.75;12.52;;;;;;;;;;12675510;23;20362;-64
2023/04/28 17:11:06;;;;;;;25.38;20.70;;;;;;;;;;12700918;23;20016;-64
2023/04/28 17:16:06;;;;;;;35.63;27.70;;;;;;;;;;12696070;23;20079;-64
2023/04/28 17:21:05;;;;;;;36.47;27.85;;;;;;;;;;12695520;23;20020;-64
2023/04/28 17:26:05;;;;;;;16.52;13.13;;;;;;;;;;12696985;22;20030;-66
2023/04/28 17:31:04;;;;;;;18.73;11.50;;;;;;;;;;12698345;23;20031;-65
2023/04/28 17:36:02;;;;;;;11.13;8.23;;;;;;;;;;12701248;23;20028;-65
2023/04/28 17:41:01;;;;;;;20.48;14.65;;;;;;;;;;12702017;22;20012;-65
2023/04/28 17:46:00;;;;;;;11.15;9.52;;;;;;;;;;12701896;22;20016;-65
2023/04/28 17:50:59;;;;;;;9.68;7.43;;;;;;;;;;12701129;22;20020;-66
2023/04/28 17:55:57;;;;;;;11.10;8.05;;;;;;;;;;12699971;22;20075;-65
2023/04/28 18:01:01;;;;;;;10.50;9.40;;;;;;;;;;12698969;22;20016;-64
2023/04/28 18:05:59;;;;;;;6.20;5.60;;;;;;;;;;12698895;22;20020;-63
2023/04/28 18:10:58;;;;;;;9.82;6.60;;;;;;;;;;12699890;22;20012;-63
2023/04/28 18:15:56;;;;;;;9.85;6.25;;;;;;;;;;12672378;23;20023;-64
2023/04/28 18:20:58;;;;;;;10.88;6.30;;;;;;;;;;12698120;22;20450;-64
2023/04/28 18:25:56;;;;;;;12.48;6.18;;;;;;;;;;12701404;22;20350;-64
2023/04/28 18:35:59;;;;;;;11.57;6.28;;;;;;;;;;12698412;22;20810;-64
2023/04/28 18:40:58;;;;;;;8.07;6.30;;;;;;;;;;12697836;22;20020;-63
2023/04/28 18:45:56;;;;;;;8.55;5.40;;;;;;;;;;12700682;22;20458;-65
2023/04/28 18:50:54;;;;;;;10.02;6.55;;;;;;;;;;12701070;22;20016;-63
2023/04/28 18:55:55;;;;;;;9.68;6.00;;;;;;;;;;12695097;22;20446;-62
2023/04/28 19:00:53;;;;;;;5.53;4.78;;;;;;;;;;12699124;22;20008;-64
2023/04/28 19:05:52;;;;;;;6.97;4.78;;;;;;;;;;12699448;22;20023;-64
2023/04/28 19:10:50;;;;;;;9.45;5.35;;;;;;;;;;12694310;22;20020;-64
2023/04/28 19:15:55;;;;;;;5.63;4.40;;;;;;;;;;12693981;22;20491;-63
2023/04/28 19:20:58;;;;;;;5.82;4.82;;;;;;;;;;12695133;22;20023;-64
2023/04/28 19:25:56;;;;;;;7.05;4.75;;;;;;;;;;12695538;22;20031;-64
2023/04/28 19:30:57;;;;;;;6.45;4.38;;;;;;;;;;12694715;22;20024;-64
2023/04/28 19:35:55;;;;;;;6.40;4.65;;;;;;;;;;12699542;22;20020;-64
2023/04/28 19:40:58;;;;;;;6.63;4.32;;;;;;;;;;12690334;22;20556;-64
2023/04/28 19:45:58;;;;;;;6.07;3.72;;;;;;;;;;12693000;22;20731;-64
2023/04/28 19:50:56;;;;;;;4.30;3.78;;;;;;;;;;12692256;22;20430;-64
2023/04/28 19:55:56;;;;;;;5.20;4.38;;;;;;;;;;12697094;22;20027;-64
2023/04/28 20:00:54;;;;;;;6.13;4.28;;;;;;;;;;12696368;22;20047;-64
2023/04/28 20:05:54;;;;;;;5.85;4.20;;;;;;;;;;12696749;22;20020;-64
2023/04/28 20:10:53;;;;;;;8.13;3.88;;;;;;;;;;12697218;22;20103;-64
2023/04/28 20:15:51;;;;;;;6.10;3.78;;;;;;;;;;12698797;22;20012;-64
2023/04/28 20:20:51;;;;;;;5.18;4.00;;;;;;;;;;12700067;22;20012;-64
2023/04/28 20:25:52;;;;;;;5.15;3.53;;;;;;;;;;12698154;22;20023;-64
2023/04/28 20:30:50;;;;;;;8.13;3.25;;;;;;;;;;12694900;22;20016;-63
2023/04/28 20:35:48;;;;;;;5.25;3.22;;;;;;;;;;12697271;22;20023;-63
2023/04/28 20:40:46;;;;;;;5.68;3.53;;;;;;;;;;12698600;22;20023;-63
2023/04/28 20:45:46;;;;;;;3.45;3.15;;;;;;;;;;12697058;22;20024;-65
2023/04/28 20:50:47;;;;;;;4.32;3.42;;;;;;;;;;12697662;22;20392;-65
2023/04/28 20:55:46;;;;;;;4.35;3.22;;;;;;;;;;12670727;23;20024;-64
2023/04/28 21:00:45;;;;;;;6.43;3.42;;;;;;;;;;12694599;22;20030;-63
2023/04/28 21:05:45;;;;;;;4.85;3.40;;;;;;;;;;12699415;22;20508;-61
2023/04/28 21:10:43;;;;;;;5.22;3.22;;;;;;;;;;12698265;22;20017;-61
2023/04/28 21:15:41;;;;;;;4.43;3.33;;;;;;;;;;12698255;22;20012;-61
2023/04/28 21:20:41;;;;;;;14.75;4.80;;;;;;;;;;12697228;22;20016;-60
2023/04/28 21:25:40;;;;;;;5.35;3.83;;;;;;;;;;12697073;22;20031;-61
2023/04/28 21:30:38;;;;;;;4.28;3.35;;;;;;;;;;12697891;22;20012;-61
2023/04/28 21:35:37;;;;;;;6.07;3.70;;;;;;;;;;12697848;22;20016;-61
2023/04/28 21:40:36;;;;;;;6.50;4.40;;;;;;;;;;12696515;22;20504;-60
2023/04/28 21:45:34;;;;;;;5.78;4.45;;;;;;;;;;12702159;22;20016;-60
2023/04/28 21:50:35;;;;;;;5.10;3.95;;;;;;;;;;12702482;22;20016;-59
2023/04/28 21:55:33;;;;;;;7.13;4.28;;;;;;;;;;12702823;22;20023;-61
2023/04/28 22:00:36;;;;;;;7.80;4.53;;;;;;;;;;12702846;22;20427;-61
2023/04/28 22:05:35;;;;;;;6.13;4.65;;;;;;;;;;12701504;22;20031;-60
2023/04/28 22:10:34;;;;;;;7.75;4.32;;;;;;;;;;12702810;22;20015;-60
2023/04/28 22:15:33;;;;;;;6.88;4.93;;;;;;;;;;12701319;22;20020;-61
2023/04/28 22:20:32;;;;;;;9.38;4.78;;;;;;;;;;12701294;22;20047;-60
2023/04/28 22:25:30;;;;;;;6.32;5.00;;;;;;;;;;12702378;22;20016;-60
2023/04/28 22:30:30;;;;;;;14.93;7.15;;;;;;;;;;12700606;22;20012;-60
2023/04/28 22:35:30;;;;;;;9.77;6.13;;;;;;;;;;12699356;22;20039;-61
2023/04/28 22:40:28;;;;;;;6.93;5.65;;;;;;;;;;12701011;22;20027;-61
2023/04/28 22:45:27;;;;;;;5.70;5.10;;;;;;;;;;12699153;22;20024;-60
2023/04/28 22:50:27;;;;;;;6.07;4.40;;;;;;;;;;12701638;22;20023;-60
2023/04/28 22:55:27;;;;;;;7.35;4.78;;;;;;;;;;12700371;22;20042;-60
2023/04/28 23:00:25;;;;;;;8.23;4.88;;;;;;;;;;12699086;22;20362;-59
2023/04/28 23:05:23;;;;;;;13.40;8.85;;;;;;;;;;12700425;22;20016;-60
2023/04/28 23:10:21;;;;;;;11.52;8.13;;;;;;;;;;12700277;22;20019;-60
2023/04/28 23:15:21;;;;;;;7.82;5.07;;;;;;;;;;12698718;22;20465;-62
2023/04/28 23:20:19;;;;;;;6.40;4.57;;;;;;;;;;12698926;22;20075;-60
2023/04/28 23:25:17;;;;;;;4.45;4.03;;;;;;;;;;12700300;22;20012;-60
2023/04/28 23:30:15;;;;;;;4.80;3.83;;;;;;;;;;12698312;22;20473;-61
2023/04/28 23:35:15;;;;;;;5.97;4.47;;;;;;;;;;12700046;22;20354;-61
2023/04/28 23:40:13;;;;;;;6.10;4.13;;;;;;;;;;12699798;22;20020;-61
2023/04/28 23:45:12;;;;;;;7.18;5.18;;;;;;;;;;12701084;22;20016;-61
2023/04/28 23:50:10;;;;;;;6.25;4.80;;;;;;;;;;12700762;22;20012;-61
2023/04/28 23:55:11;;;;;;;10.45;5.00;;;;;;;;;;12699733;22;20043;-61
